Nutzungsgebühren

Rettungshubschrauber am Flugplatz Konstanz
(PDF-Datei - 58 kB)

Alle Entgelte dieser Entgeltordnung sind einschließlich 19 % Umsatzsteuer ausgewiesen.

Landeentgelte

Höchstabfluggewicht
Landeentgelt
mit einfachem Lärmschutz
mit besonderem Lärmschutz
bis 1.000 kg € 10,50 € 7,20 € 6,00
1.001 - 1.200 kg € 12,50 € 9,25 € 7,50
1.201 - 1.400 kg € 19,00 € 13,35 € 10,50
1.401 - 2.000 kg € 26,00 € 20,55 € 15,00
2.001 - 3.000 kg € 35,00 € 27,70 € 21,00
3.001 - 4.000 kg € 92,50 € 86,20 € 74,00
Segelflieger € 2,20
Ultraleicht € 6,00

Abstellentgelte

Höchstabfluggewicht
Abstellentgelt (je angefangener 24 Stunden)
bis 1.000 kg € 4,00
1.001 - 1.200 kg € 5,00
1.201 - 1.400 kg € 6,00
1.401 - 2.000 kg € 6,50
2.001 - 3.000 kg € 10,50
3.001 - 4.000 kg € 16,00

Service-Gebühren

Pauschale für Flugplan € 4,00
Früh-/Spätabfertigung
(je angefangener halber Stunde vor/nach Schließung)
€ 20,00

Live am Platz

Die Bilder unserer Webcams werden alle 5 Minuten aktualisiert.

Sonnenaufgang:

03:24 UTC / 05:24 Lokal

Sonnenuntergang:

19:27 UTC / 21:27 Lokal

METAR (24.06.2018 11:50 UTC):

EDNY 241150Z VRB04KT CAVOK 20/09 Q1020
VFR

TAF (24.06.2018 11:00 UTC):

TAF EDNY 241100Z 2412/2512 04006KT 9999 SCT050

Alle Angaben unverbindlich und ohne Gewähr. Zeiten genähert.

Für den Verkehrslandeplatz Konstanz werden keine offiziellen Wetterinformationen herausgegeben. Daher werden zur Orientierung Daten des nahegelegenen Flughafens Friedrichshafen dargestellt.